Terrace Park, Ohio
Current Conditions -  °F | °C
As of 5:53 AM on Sunday 21 Dec 2014 (Local Time) from KLUK Reporting Station
Haze Haze  
Wind Chill: 23°   Ceiling: 2200
Heat Index: 23°   Visibility: 5mi
Dew Point: 22°   Wind: 0mph
Humidity: 96%   Direction: NA
Pressure: 30.34"   Gusts: NA
Location:  39.16°N, 84.31°W
Report Text: KLUK 211053Z AUTO 00000KT 5SM BR OVC022 M05/M06 A3034 RMK AO2 SLP279 I1000 T10501056
Loading
Personal Weather Stations






























Interactive Weather Map New forecast layout! Learn more

10-Day Weather Forecast

Advertisements
Track Severe Weather on mobile